Hootenville, Louisiana
Current Conditions -  °F | °C
As of 3:27 AM on Monday 24 Nov 2014 (Local Time) from KASD Reporting Station
Moderate Fog Moderate Fog  
Wind Chill: 19°   Ceiling: 200
Heat Index: 19°   Visibility: 0.5mi
Dew Point: 19°   Wind: 8mph
Humidity: 97%   Direction: 220°SW
Pressure: 29.76"   Gusts: NA
Location:  30.3898°N, 90.0068°W
Report Text: KASD 240927Z AUTO 22007KT 1/2SM FG VV002 19/19 A2976 RMK AO2 T01940189
Loading
Personal Weather Stations






























Interactive Weather Map New forecast layout! Learn more

10-Day Weather Forecast

Advertisements
Track Severe Weather on mobile